sensor_id;sensor_type;location;lat;lon;timestamp;P1;durP1;ratioP1;P2;durP2;ratioP2
6860;SDS011;3469;47.060;15.460;2023-11-21T00:00:55;23.40;;;15.47;;
6860;SDS011;3469;47.060;15.460;2023-11-21T00:03:25;20.83;;;15.27;;
6860;SDS011;3469;47.060;15.460;2023-11-21T00:05:56;24.23;;;16.50;;
6860;SDS011;3469;47.060;15.460;2023-11-21T00:08:27;24.03;;;17.23;;
6860;SDS011;3469;47.060;15.460;2023-11-21T00:10:58;27.87;;;15.70;;
6860;SDS011;3469;47.060;15.460;2023-11-21T00:13:31;21.93;;;14.53;;
6860;SDS011;3469;47.060;15.460;2023-11-21T00:16:02;24.17;;;16.17;;
6860;SDS011;3469;47.060;15.460;2023-11-21T00:18:34;21.70;;;15.40;;
6860;SDS011;3469;47.060;15.460;2023-11-21T00:21:05;23.50;;;15.97;;
6860;SDS011;3469;47.060;15.460;2023-11-21T00:23:35;19.37;;;14.70;;
6860;SDS011;3469;47.060;15.460;2023-11-21T00:26:06;21.93;;;16.00;;
6860;SDS011;3469;47.060;15.460;2023-11-21T00:28:39;21.40;;;15.50;;
6860;SDS011;3469;47.060;15.460;2023-11-21T00:31:09;22.07;;;15.47;;
6860;SDS011;3469;47.060;15.460;2023-11-21T00:33:40;19.40;;;15.60;;
6860;SDS011;3469;47.060;15.460;2023-11-21T00:36:12;21.40;;;17.00;;
6860;SDS011;3469;47.060;15.460;2023-11-21T00:38:42;26.57;;;16.10;;
6860;SDS011;3469;47.060;15.460;2023-11-21T00:41:13;22.50;;;17.50;;
6860;SDS011;3469;47.060;15.460;2023-11-21T00:43:46;20.40;;;15.00;;
6860;SDS011;3469;47.060;15.460;2023-11-21T00:46:17;22.13;;;15.43;;
6860;SDS011;3469;47.060;15.460;2023-11-21T00:48:48;23.87;;;16.50;;
6860;SDS011;3469;47.060;15.460;2023-11-21T00:51:18;22.03;;;16.40;;
6860;SDS011;3469;47.060;15.460;2023-11-21T00:53:48;27.07;;;16.97;;
6860;SDS011;3469;47.060;15.460;2023-11-21T00:56:18;18.80;;;14.97;;
6860;SDS011;3469;47.060;15.460;2023-11-21T00:58:52;21.80;;;15.13;;
6860;SDS011;3469;47.060;15.460;2023-11-21T01:01:22;21.20;;;16.30;;
6860;SDS011;3469;47.060;15.460;2023-11-21T01:03:53;24.20;;;16.87;;
6860;SDS011;3469;47.060;15.460;2023-11-21T01:06:23;20.50;;;16.17;;
6860;SDS011;3469;47.060;15.460;2023-11-21T01:08:53;19.60;;;15.10;;
6860;SDS011;3469;47.060;15.460;2023-11-21T01:11:26;22.73;;;16.13;;
6860;SDS011;3469;47.060;15.460;2023-11-21T01:13:59;22.63;;;15.80;;
6860;SDS011;3469;47.060;15.460;2023-11-21T01:16:30;26.17;;;16.37;;
6860;SDS011;3469;47.060;15.460;2023-11-21T01:19:03;20.93;;;15.83;;
6860;SDS011;3469;47.060;15.460;2023-11-21T01:21:34;24.93;;;15.50;;
6860;SDS011;3469;47.060;15.460;2023-11-21T01:24:05;20.77;;;14.67;;
6860;SDS011;3469;47.060;15.460;2023-11-21T01:26:36;24.20;;;14.90;;
6860;SDS011;3469;47.060;15.460;2023-11-21T01:29:09;24.83;;;15.60;;
6860;SDS011;3469;47.060;15.460;2023-11-21T01:31:39;22.33;;;15.90;;
6860;SDS011;3469;47.060;15.460;2023-11-21T01:34:10;21.67;;;16.53;;
6860;SDS011;3469;47.060;15.460;2023-11-21T01:36:41;21.87;;;16.10;;
6860;SDS011;3469;47.060;15.460;2023-11-21T01:39:11;21.83;;;15.10;;
6860;SDS011;3469;47.060;15.460;2023-11-21T01:41:43;18.33;;;14.23;;
6860;SDS011;3469;47.060;15.460;2023-11-21T01:46:59;16.50;;;11.60;;
6860;SDS011;3469;47.060;15.460;2023-11-21T01:49:32;16.57;;;12.17;;
6860;SDS011;3469;47.060;15.460;2023-11-21T01:52:03;15.10;;;11.67;;
6860;SDS011;3469;47.060;15.460;2023-11-21T01:54:34;18.87;;;12.33;;
6860;SDS011;3469;47.060;15.460;2023-11-21T01:57:04;28.70;;;11.20;;
6860;SDS011;3469;47.060;15.460;2023-11-21T01:59:35;19.70;;;11.33;;
6860;SDS011;3469;47.060;15.460;2023-11-21T02:02:09;13.87;;;11.23;;
6860;SDS011;3469;47.060;15.460;2023-11-21T02:04:39;17.87;;;10.43;;
6860;SDS011;3469;47.060;15.460;2023-11-21T02:07:10;14.60;;;10.40;;
6860;SDS011;3469;47.060;15.460;2023-11-21T02:09:40;15.83;;;10.60;;
6860;SDS011;3469;47.060;15.460;2023-11-21T02:12:12;16.07;;;10.00;;
6860;SDS011;3469;47.060;15.460;2023-11-21T02:14:43;18.20;;;9.60;;
6860;SDS011;3469;47.060;15.460;2023-11-21T02:17:16;11.10;;;7.73;;
6860;SDS011;3469;47.060;15.460;2023-11-21T02:19:47;15.00;;;8.30;;
6860;SDS011;3469;47.060;15.460;2023-11-21T02:22:18;10.50;;;7.60;;
6860;SDS011;3469;47.060;15.460;2023-11-21T02:24:52;11.13;;;8.17;;
6860;SDS011;3469;47.060;15.460;2023-11-21T02:27:23;10.63;;;7.90;;
6860;SDS011;3469;47.060;15.460;2023-11-21T02:29:54;10.23;;;8.17;;
6860;SDS011;3469;47.060;15.460;2023-11-21T02:32:25;8.70;;;6.40;;
6860;SDS011;3469;47.060;15.460;2023-11-21T02:34:58;11.70;;;7.70;;
6860;SDS011;3469;47.060;15.460;2023-11-21T02:37:34;9.63;;;7.23;;
6860;SDS011;3469;47.060;15.460;2023-11-21T02:40:09;8.20;;;7.03;;
6860;SDS011;3469;47.060;15.460;2023-11-21T02:42:40;9.63;;;6.80;;
6860;SDS011;3469;47.060;15.460;2023-11-21T02:45:10;8.00;;;6.23;;
6860;SDS011;3469;47.060;15.460;2023-11-21T02:47:44;8.20;;;6.20;;
6860;SDS011;3469;47.060;15.460;2023-11-21T02:50:14;7.80;;;6.40;;
6860;SDS011;3469;47.060;15.460;2023-11-21T02:52:46;8.97;;;6.63;;
6860;SDS011;3469;47.060;15.460;2023-11-21T02:55:19;8.83;;;6.80;;
6860;SDS011;3469;47.060;15.460;2023-11-21T02:57:53;9.03;;;6.67;;
6860;SDS011;3469;47.060;15.460;2023-11-21T03:00:23;9.10;;;6.03;;
6860;SDS011;3469;47.060;15.460;2023-11-21T03:02:54;7.53;;;5.83;;
6860;SDS011;3469;47.060;15.460;2023-11-21T03:05:25;9.37;;;6.00;;
6860;SDS011;3469;47.060;15.460;2023-11-21T03:07:56;6.60;;;4.90;;
6860;SDS011;3469;47.060;15.460;2023-11-21T03:10:29;11.70;;;6.70;;
6860;SDS011;3469;47.060;15.460;2023-11-21T03:13:00;8.47;;;5.60;;
6860;SDS011;3469;47.060;15.460;2023-11-21T03:15:31;7.93;;;5.20;;
6860;SDS011;3469;47.060;15.460;2023-11-21T03:18:03;8.13;;;5.60;;
6860;SDS011;3469;47.060;15.460;2023-11-21T03:20:35;7.40;;;5.37;;
6860;SDS011;3469;47.060;15.460;2023-11-21T03:23:05;8.27;;;5.53;;
6860;SDS011;3469;47.060;15.460;2023-11-21T03:25:38;8.43;;;4.80;;
6860;SDS011;3469;47.060;15.460;2023-11-21T03:28:08;9.33;;;5.07;;
6860;SDS011;3469;47.060;15.460;2023-11-21T03:30:38;4.67;;;4.20;;
6860;SDS011;3469;47.060;15.460;2023-11-21T03:33:09;7.63;;;4.97;;
6860;SDS011;3469;47.060;15.460;2023-11-21T03:35:41;6.90;;;4.77;;
6860;SDS011;3469;47.060;15.460;2023-11-21T03:38:12;8.60;;;4.90;;
6860;SDS011;3469;47.060;15.460;2023-11-21T03:40:45;5.30;;;4.40;;
6860;SDS011;3469;47.060;15.460;2023-11-21T03:43:15;6.97;;;4.87;;
6860;SDS011;3469;47.060;15.460;2023-11-21T03:45:46;8.20;;;3.83;;
6860;SDS011;3469;47.060;15.460;2023-11-21T03:48:17;8.10;;;4.37;;
6860;SDS011;3469;47.060;15.460;2023-11-21T03:50:47;6.30;;;4.77;;
6860;SDS011;3469;47.060;15.460;2023-11-21T03:53:18;6.13;;;4.60;;
6860;SDS011;3469;47.060;15.460;2023-11-21T03:55:50;5.20;;;4.70;;
6860;SDS011;3469;47.060;15.460;2023-11-21T03:58:21;7.93;;;5.40;;
6860;SDS011;3469;47.060;15.460;2023-11-21T04:00:51;6.07;;;5.47;;
6860;SDS011;3469;47.060;15.460;2023-11-21T04:03:22;7.13;;;5.37;;
6860;SDS011;3469;47.060;15.460;2023-11-21T04:05:52;6.80;;;5.37;;
6860;SDS011;3469;47.060;15.460;2023-11-21T04:08:22;8.87;;;6.07;;
6860;SDS011;3469;47.060;15.460;2023-11-21T04:10:55;8.20;;;6.33;;
6860;SDS011;3469;47.060;15.460;2023-11-21T04:13:26;6.87;;;6.17;;
6860;SDS011;3469;47.060;15.460;2023-11-21T04:15:56;6.93;;;5.93;;
6860;SDS011;3469;47.060;15.460;2023-11-21T04:18:26;10.10;;;7.20;;
6860;SDS011;3469;47.060;15.460;2023-11-21T04:20:57;12.40;;;7.27;;
6860;SDS011;3469;47.060;15.460;2023-11-21T04:23:28;11.60;;;7.50;;
6860;SDS011;3469;47.060;15.460;2023-11-21T04:26:01;9.17;;;6.67;;
6860;SDS011;3469;47.060;15.460;2023-11-21T04:28:32;16.20;;;8.83;;
6860;SDS011;3469;47.060;15.460;2023-11-21T04:31:02;10.60;;;7.70;;
6860;SDS011;3469;47.060;15.460;2023-11-21T04:33:34;10.97;;;8.77;;
6860;SDS011;3469;47.060;15.460;2023-11-21T04:36:04;10.27;;;8.10;;
6860;SDS011;3469;47.060;15.460;2023-11-21T04:38:36;11.33;;;8.27;;
6860;SDS011;3469;47.060;15.460;2023-11-21T04:41:11;12.33;;;9.43;;
6860;SDS011;3469;47.060;15.460;2023-11-21T04:43:42;13.20;;;8.97;;
6860;SDS011;3469;47.060;15.460;2023-11-21T04:46:12;14.90;;;9.03;;
6860;SDS011;3469;47.060;15.460;2023-11-21T04:48:42;14.83;;;10.20;;
6860;SDS011;3469;47.060;15.460;2023-11-21T04:51:13;10.73;;;9.30;;
6860;SDS011;3469;47.060;15.460;2023-11-21T04:53:44;13.40;;;8.13;;
6860;SDS011;3469;47.060;15.460;2023-11-21T04:56:17;11.43;;;8.80;;
6860;SDS011;3469;47.060;15.460;2023-11-21T04:58:47;10.10;;;8.47;;
6860;SDS011;3469;47.060;15.460;2023-11-21T05:01:18;14.20;;;8.57;;
6860;SDS011;3469;47.060;15.460;2023-11-21T05:03:48;9.50;;;7.40;;
6860;SDS011;3469;47.060;15.460;2023-11-21T05:06:19;10.30;;;7.43;;
6860;SDS011;3469;47.060;15.460;2023-11-21T05:31:08;14.43;;;10.30;;
6860;SDS011;3469;47.060;15.460;2023-11-21T05:33:43;15.07;;;12.17;;
6860;SDS011;3469;47.060;15.460;2023-11-21T05:36:13;15.87;;;11.00;;
6860;SDS011;3469;47.060;15.460;2023-11-21T05:38:44;15.77;;;11.60;;
6860;SDS011;3469;47.060;15.460;2023-11-21T05:41:15;15.97;;;12.10;;
6860;SDS011;3469;47.060;15.460;2023-11-21T05:43:46;16.03;;;13.20;;
6860;SDS011;3469;47.060;15.460;2023-11-21T05:46:19;17.17;;;11.13;;
6860;SDS011;3469;47.060;15.460;2023-11-21T05:48:50;18.60;;;13.37;;
6860;SDS011;3469;47.060;15.460;2023-11-21T05:51:21;15.30;;;13.03;;
6860;SDS011;3469;47.060;15.460;2023-11-21T05:53:52;19.70;;;13.03;;
6860;SDS011;3469;47.060;15.460;2023-11-21T05:56:22;18.20;;;12.93;;
6860;SDS011;3469;47.060;15.460;2023-11-21T05:58:54;18.50;;;13.47;;
6860;SDS011;3469;47.060;15.460;2023-11-21T06:04:20;16.37;;;13.10;;
6860;SDS011;3469;47.060;15.460;2023-11-21T06:06:52;18.20;;;12.63;;
6860;SDS011;3469;47.060;15.460;2023-11-21T06:09:23;15.67;;;12.47;;
6860;SDS011;3469;47.060;15.460;2023-11-21T06:14:54;15.77;;;11.60;;
6860;SDS011;3469;47.060;15.460;2023-11-21T06:17:25;15.70;;;13.10;;
6860;SDS011;3469;47.060;15.460;2023-11-21T06:19:58;15.40;;;11.53;;
6860;SDS011;3469;47.060;15.460;2023-11-21T06:22:30;21.43;;;12.97;;
6860;SDS011;3469;47.060;15.460;2023-11-21T06:25:01;13.63;;;11.17;;
6860;SDS011;3469;47.060;15.460;2023-11-21T06:27:32;19.60;;;12.97;;
6860;SDS011;3469;47.060;15.460;2023-11-21T06:30:05;16.60;;;12.47;;
6860;SDS011;3469;47.060;15.460;2023-11-21T06:32:36;18.23;;;12.33;;
6860;SDS011;3469;47.060;15.460;2023-11-21T06:35:10;16.57;;;11.87;;
6860;SDS011;3469;47.060;15.460;2023-11-21T06:37:40;14.93;;;12.17;;
6860;SDS011;3469;47.060;15.460;2023-11-21T06:40:16;17.40;;;11.80;;
6860;SDS011;3469;47.060;15.460;2023-11-21T06:42:49;15.83;;;12.80;;
6860;SDS011;3469;47.060;15.460;2023-11-21T06:45:20;19.43;;;12.73;;
6860;SDS011;3469;47.060;15.460;2023-11-21T06:47:50;14.00;;;11.57;;
6860;SDS011;3469;47.060;15.460;2023-11-21T06:50:23;15.63;;;12.00;;
6860;SDS011;3469;47.060;15.460;2023-11-21T06:52:53;15.47;;;11.80;;
6860;SDS011;3469;47.060;15.460;2023-11-21T06:55:24;16.53;;;12.10;;
6860;SDS011;3469;47.060;15.460;2023-11-21T06:57:54;12.97;;;11.40;;
6860;SDS011;3469;47.060;15.460;2023-11-21T07:00:25;14.00;;;11.90;;
6860;SDS011;3469;47.060;15.460;2023-11-21T07:02:55;13.07;;;10.90;;
6860;SDS011;3469;47.060;15.460;2023-11-21T07:05:28;15.40;;;11.70;;
6860;SDS011;3469;47.060;15.460;2023-11-21T07:07:59;13.60;;;10.00;;
6860;SDS011;3469;47.060;15.460;2023-11-21T07:10:31;13.57;;;10.20;;
6860;SDS011;3469;47.060;15.460;2023-11-21T07:13:02;14.80;;;11.13;;
6860;SDS011;3469;47.060;15.460;2023-11-21T07:15:33;12.93;;;10.57;;
6860;SDS011;3469;47.060;15.460;2023-11-21T07:18:05;12.37;;;10.63;;
6860;SDS011;3469;47.060;15.460;2023-11-21T07:20:38;14.67;;;10.27;;
6860;SDS011;3469;47.060;15.460;2023-11-21T07:23:09;13.57;;;11.07;;
6860;SDS011;3469;47.060;15.460;2023-11-21T07:25:39;13.57;;;8.67;;
6860;SDS011;3469;47.060;15.460;2023-11-21T07:28:10;11.90;;;9.27;;
6860;SDS011;3469;47.060;15.460;2023-11-21T07:30:40;9.60;;;7.00;;
6860;SDS011;3469;47.060;15.460;2023-11-21T07:33:13;11.10;;;7.53;;
6860;SDS011;3469;47.060;15.460;2023-11-21T07:35:47;9.40;;;7.40;;
6860;SDS011;3469;47.060;15.460;2023-11-21T07:38:17;9.50;;;7.23;;
6860;SDS011;3469;47.060;15.460;2023-11-21T07:40:47;9.37;;;7.70;;
6860;SDS011;3469;47.060;15.460;2023-11-21T07:43:18;10.23;;;7.30;;
6860;SDS011;3469;47.060;15.460;2023-11-21T07:45:50;8.90;;;7.87;;
6860;SDS011;3469;47.060;15.460;2023-11-21T07:48:20;11.50;;;8.87;;
6860;SDS011;3469;47.060;15.460;2023-11-21T07:50:53;8.20;;;7.30;;
6860;SDS011;3469;47.060;15.460;2023-11-21T07:53:23;8.43;;;6.80;;
6860;SDS011;3469;47.060;15.460;2023-11-21T07:55:57;8.83;;;7.00;;
6860;SDS011;3469;47.060;15.460;2023-11-21T07:58:27;9.47;;;7.30;;
6860;SDS011;3469;47.060;15.460;2023-11-21T08:01:00;9.43;;;7.50;;
6860;SDS011;3469;47.060;15.460;2023-11-21T08:03:33;8.60;;;7.60;;
6860;SDS011;3469;47.060;15.460;2023-11-21T08:06:07;8.60;;;7.23;;
6860;SDS011;3469;47.060;15.460;2023-11-21T08:08:38;9.67;;;8.67;;
6860;SDS011;3469;47.060;15.460;2023-11-21T08:11:09;8.80;;;7.67;;
6860;SDS011;3469;47.060;15.460;2023-11-21T08:13:40;9.40;;;7.50;;
6860;SDS011;3469;47.060;15.460;2023-11-21T08:16:10;9.50;;;8.20;;
6860;SDS011;3469;47.060;15.460;2023-11-21T08:18:41;10.43;;;9.17;;
6860;SDS011;3469;47.060;15.460;2023-11-21T08:21:14;10.57;;;8.30;;
6860;SDS011;3469;47.060;15.460;2023-11-21T08:23:46;11.73;;;8.37;;
6860;SDS011;3469;47.060;15.460;2023-11-21T08:26:20;9.20;;;8.30;;
6860;SDS011;3469;47.060;15.460;2023-11-21T08:28:51;12.70;;;8.50;;
6860;SDS011;3469;47.060;15.460;2023-11-21T08:31:24;10.70;;;8.13;;
6860;SDS011;3469;47.060;15.460;2023-11-21T08:33:55;10.10;;;8.10;;
6860;SDS011;3469;47.060;15.460;2023-11-21T08:36:28;10.47;;;8.37;;
6860;SDS011;3469;47.060;15.460;2023-11-21T08:38:58;11.60;;;8.73;;
6860;SDS011;3469;47.060;15.460;2023-11-21T08:41:28;10.00;;;7.80;;
6860;SDS011;3469;47.060;15.460;2023-11-21T08:43:59;12.60;;;8.67;;
6860;SDS011;3469;47.060;15.460;2023-11-21T08:46:29;8.83;;;7.40;;
6860;SDS011;3469;47.060;15.460;2023-11-21T08:49:00;10.63;;;8.90;;
6860;SDS011;3469;47.060;15.460;2023-11-21T08:51:33;12.27;;;9.30;;
6860;SDS011;3469;47.060;15.460;2023-11-21T08:54:04;10.53;;;8.17;;
6860;SDS011;3469;47.060;15.460;2023-11-21T08:56:35;13.23;;;8.73;;
6860;SDS011;3469;47.060;15.460;2023-11-21T08:59:05;10.10;;;8.53;;
6860;SDS011;3469;47.060;15.460;2023-11-21T09:01:35;12.87;;;9.67;;
6860;SDS011;3469;47.060;15.460;2023-11-21T09:04:06;12.30;;;7.83;;
6860;SDS011;3469;47.060;15.460;2023-11-21T09:06:39;11.50;;;9.50;;
6860;SDS011;3469;47.060;15.460;2023-11-21T09:09:09;9.90;;;8.30;;
6860;SDS011;3469;47.060;15.460;2023-11-21T09:11:40;12.03;;;8.40;;
6860;SDS011;3469;47.060;15.460;2023-11-21T09:14:12;10.10;;;8.23;;
6860;SDS011;3469;47.060;15.460;2023-11-21T09:16:44;15.70;;;8.43;;
6860;SDS011;3469;47.060;15.460;2023-11-21T09:19:15;12.17;;;7.00;;
6860;SDS011;3469;47.060;15.460;2023-11-21T09:21:48;10.23;;;7.90;;
6860;SDS011;3469;47.060;15.460;2023-11-21T09:24:18;10.50;;;7.87;;
6860;SDS011;3469;47.060;15.460;2023-11-21T09:26:48;9.07;;;7.27;;
6860;SDS011;3469;47.060;15.460;2023-11-21T09:29:19;7.43;;;6.10;;
6860;SDS011;3469;47.060;15.460;2023-11-21T09:31:49;8.33;;;5.77;;
6860;SDS011;3469;47.060;15.460;2023-11-21T09:34:22;6.97;;;5.63;;
6860;SDS011;3469;47.060;15.460;2023-11-21T09:36:57;6.20;;;5.57;;
6860;SDS011;3469;47.060;15.460;2023-11-21T09:39:29;7.03;;;5.30;;
6860;SDS011;3469;47.060;15.460;2023-11-21T09:42:03;7.90;;;6.30;;
6860;SDS011;3469;47.060;15.460;2023-11-21T09:44:35;11.40;;;6.93;;
6860;SDS011;3469;47.060;15.460;2023-11-21T09:47:09;7.50;;;6.50;;
6860;SDS011;3469;47.060;15.460;2023-11-21T09:49:40;9.07;;;6.33;;
6860;SDS011;3469;47.060;15.460;2023-11-21T09:52:18;7.60;;;6.23;;
6860;SDS011;3469;47.060;15.460;2023-11-21T09:54:54;7.23;;;5.00;;
6860;SDS011;3469;47.060;15.460;2023-11-21T09:57:25;7.33;;;5.63;;
6860;SDS011;3469;47.060;15.460;2023-11-21T09:59:56;5.77;;;5.13;;
6860;SDS011;3469;47.060;15.460;2023-11-21T10:02:31;7.60;;;6.30;;
6860;SDS011;3469;47.060;15.460;2023-11-21T10:05:05;9.83;;;6.40;;
6860;SDS011;3469;47.060;15.460;2023-11-21T10:07:39;9.37;;;6.67;;
6860;SDS011;3469;47.060;15.460;2023-11-21T10:10:11;7.17;;;6.23;;
6860;SDS011;3469;47.060;15.460;2023-11-21T10:12:42;7.60;;;6.73;;
6860;SDS011;3469;47.060;15.460;2023-11-21T10:15:13;9.33;;;6.13;;
6860;SDS011;3469;47.060;15.460;2023-11-21T10:17:44;6.13;;;5.20;;
6860;SDS011;3469;47.060;15.460;2023-11-21T10:20:15;12.00;;;6.87;;
6860;SDS011;3469;47.060;15.460;2023-11-21T10:22:51;7.67;;;6.03;;
6860;SDS011;3469;47.060;15.460;2023-11-21T10:25:21;6.97;;;5.50;;
6860;SDS011;3469;47.060;15.460;2023-11-21T10:27:56;8.77;;;5.30;;
6860;SDS011;3469;47.060;15.460;2023-11-21T10:30:28;6.70;;;5.00;;
6860;SDS011;3469;47.060;15.460;2023-11-21T10:33:04;7.40;;;5.27;;
6860;SDS011;3469;47.060;15.460;2023-11-21T10:35:38;7.90;;;5.33;;
6860;SDS011;3469;47.060;15.460;2023-11-21T10:38:12;7.10;;;5.00;;
6860;SDS011;3469;47.060;15.460;2023-11-21T10:40:43;6.80;;;5.17;;
6860;SDS011;3469;47.060;15.460;2023-11-21T10:43:14;12.40;;;6.93;;
6860;SDS011;3469;47.060;15.460;2023-11-21T10:45:45;6.10;;;5.50;;
6860;SDS011;3469;47.060;15.460;2023-11-21T10:48:16;7.10;;;6.40;;
6860;SDS011;3469;47.060;15.460;2023-11-21T10:50:48;6.97;;;6.27;;
6860;SDS011;3469;47.060;15.460;2023-11-21T10:53:21;14.93;;;7.80;;
6860;SDS011;3469;47.060;15.460;2023-11-21T10:55:55;8.30;;;7.10;;
6860;SDS011;3469;47.060;15.460;2023-11-21T10:58:31;6.50;;;5.40;;
6860;SDS011;3469;47.060;15.460;2023-11-21T11:01:03;10.27;;;6.63;;
6860;SDS011;3469;47.060;15.460;2023-11-21T11:03:38;8.20;;;6.50;;
6860;SDS011;3469;47.060;15.460;2023-11-21T11:06:09;10.60;;;6.83;;
6860;SDS011;3469;47.060;15.460;2023-11-21T11:08:43;8.67;;;6.27;;
6860;SDS011;3469;47.060;15.460;2023-11-21T11:11:14;10.20;;;5.93;;
6860;SDS011;3469;47.060;15.460;2023-11-21T11:13:45;8.23;;;6.30;;
6860;SDS011;3469;47.060;15.460;2023-11-21T11:16:15;7.80;;;6.57;;
6860;SDS011;3469;47.060;15.460;2023-11-21T11:18:47;9.33;;;6.73;;
6860;SDS011;3469;47.060;15.460;2023-11-21T11:21:22;7.80;;;6.43;;
6860;SDS011;3469;47.060;15.460;2023-11-21T11:24:04;9.50;;;5.83;;
6860;SDS011;3469;47.060;15.460;2023-11-21T11:26:42;11.50;;;6.63;;
6860;SDS011;3469;47.060;15.460;2023-11-21T11:29:19;11.40;;;7.47;;
6860;SDS011;3469;47.060;15.460;2023-11-21T11:31:55;9.80;;;6.90;;
6860;SDS011;3469;47.060;15.460;2023-11-21T11:34:35;12.63;;;8.10;;
6860;SDS011;3469;47.060;15.460;2023-11-21T11:37:06;10.67;;;7.53;;
6860;SDS011;3469;47.060;15.460;2023-11-21T11:39:40;11.03;;;6.07;;
6860;SDS011;3469;47.060;15.460;2023-11-21T11:42:12;8.67;;;5.63;;
6860;SDS011;3469;47.060;15.460;2023-11-21T11:44:50;5.63;;;5.13;;
6860;SDS011;3469;47.060;15.460;2023-11-21T11:47:21;7.27;;;5.00;;
6860;SDS011;3469;47.060;15.460;2023-11-21T11:50:00;8.40;;;5.73;;
6860;SDS011;3469;47.060;15.460;2023-11-21T11:52:35;6.70;;;5.90;;
6860;SDS011;3469;47.060;15.460;2023-11-21T11:55:11;7.53;;;5.80;;
6860;SDS011;3469;47.060;15.460;2023-11-21T11:57:45;7.07;;;6.37;;
6860;SDS011;3469;47.060;15.460;2023-11-21T12:00:18;11.57;;;6.00;;
6860;SDS011;3469;47.060;15.460;2023-11-21T12:02:52;8.37;;;6.90;;
6860;SDS011;3469;47.060;15.460;2023-11-21T12:05:24;7.93;;;6.60;;
6860;SDS011;3469;47.060;15.460;2023-11-21T12:07:56;9.30;;;7.20;;
6860;SDS011;3469;47.060;15.460;2023-11-21T12:10:31;7.23;;;5.33;;
6860;SDS011;3469;47.060;15.460;2023-11-21T12:13:03;8.00;;;6.60;;
6860;SDS011;3469;47.060;15.460;2023-11-21T12:15:37;11.67;;;7.73;;
6860;SDS011;3469;47.060;15.460;2023-11-21T12:18:09;9.30;;;7.20;;
6860;SDS011;3469;47.060;15.460;2023-11-21T12:20:41;7.93;;;6.63;;
6860;SDS011;3469;47.060;15.460;2023-11-21T12:23:13;8.60;;;6.37;;
6860;SDS011;3469;47.060;15.460;2023-11-21T12:25:47;7.87;;;7.10;;
6860;SDS011;3469;47.060;15.460;2023-11-21T12:28:17;11.00;;;5.47;;
6860;SDS011;3469;47.060;15.460;2023-11-21T12:30:49;7.83;;;6.27;;
6860;SDS011;3469;47.060;15.460;2023-11-21T12:33:29;6.17;;;5.30;;
6860;SDS011;3469;47.060;15.460;2023-11-21T12:36:00;8.20;;;6.30;;
6860;SDS011;3469;47.060;15.460;2023-11-21T12:38:33;7.47;;;5.50;;
6860;SDS011;3469;47.060;15.460;2023-11-21T12:41:06;11.00;;;6.53;;
6860;SDS011;3469;47.060;15.460;2023-11-21T12:43:37;7.93;;;6.03;;
6860;SDS011;3469;47.060;15.460;2023-11-21T12:46:08;8.90;;;5.90;;
6860;SDS011;3469;47.060;15.460;2023-11-21T12:48:46;6.87;;;5.73;;
6860;SDS011;3469;47.060;15.460;2023-11-21T12:51:16;6.90;;;6.20;;
6860;SDS011;3469;47.060;15.460;2023-11-21T12:53:47;10.13;;;6.40;;
6860;SDS011;3469;47.060;15.460;2023-11-21T12:56:21;9.57;;;6.33;;
6860;SDS011;3469;47.060;15.460;2023-11-21T12:58:54;9.20;;;7.60;;
6860;SDS011;3469;47.060;15.460;2023-11-21T13:01:26;8.70;;;6.63;;
6860;SDS011;3469;47.060;15.460;2023-11-21T13:03:57;8.00;;;5.90;;
6860;SDS011;3469;47.060;15.460;2023-11-21T13:06:29;11.53;;;8.10;;
6860;SDS011;3469;47.060;15.460;2023-11-21T13:09:06;11.17;;;6.07;;
6860;SDS011;3469;47.060;15.460;2023-11-21T13:11:40;9.87;;;6.17;;
6860;SDS011;3469;47.060;15.460;2023-11-21T13:14:12;7.37;;;6.27;;
6860;SDS011;3469;47.060;15.460;2023-11-21T13:16:43;8.37;;;7.00;;
6860;SDS011;3469;47.060;15.460;2023-11-21T13:19:13;8.47;;;6.87;;
6860;SDS011;3469;47.060;15.460;2023-11-21T13:21:44;14.47;;;6.90;;
6860;SDS011;3469;47.060;15.460;2023-11-21T13:24:14;12.57;;;8.00;;
6860;SDS011;3469;47.060;15.460;2023-11-21T13:26:47;13.07;;;8.97;;
6860;SDS011;3469;47.060;15.460;2023-11-21T13:29:18;19.50;;;10.20;;
6860;SDS011;3469;47.060;15.460;2023-11-21T13:31:48;12.00;;;9.03;;
6860;SDS011;3469;47.060;15.460;2023-11-21T13:34:20;10.43;;;9.33;;
6860;SDS011;3469;47.060;15.460;2023-11-21T13:36:59;10.67;;;7.23;;
6860;SDS011;3469;47.060;15.460;2023-11-21T13:39:31;9.33;;;8.33;;
6860;SDS011;3469;47.060;15.460;2023-11-21T13:42:05;14.57;;;8.40;;
6860;SDS011;3469;47.060;15.460;2023-11-21T13:44:38;9.53;;;7.70;;
6860;SDS011;3469;47.060;15.460;2023-11-21T13:47:12;8.90;;;7.70;;
6860;SDS011;3469;47.060;15.460;2023-11-21T13:49:43;9.63;;;7.93;;
6860;SDS011;3469;47.060;15.460;2023-11-21T13:52:15;11.40;;;7.90;;
6860;SDS011;3469;47.060;15.460;2023-11-21T13:54:49;10.23;;;7.60;;
6860;SDS011;3469;47.060;15.460;2023-11-21T13:57:22;14.07;;;8.30;;
6860;SDS011;3469;47.060;15.460;2023-11-21T13:59:54;11.00;;;9.40;;
6860;SDS011;3469;47.060;15.460;2023-11-21T14:02:25;9.50;;;7.80;;
6860;SDS011;3469;47.060;15.460;2023-11-21T14:05:02;14.30;;;8.53;;
6860;SDS011;3469;47.060;15.460;2023-11-21T14:07:36;11.30;;;8.30;;
6860;SDS011;3469;47.060;15.460;2023-11-21T14:10:15;12.10;;;9.67;;
6860;SDS011;3469;47.060;15.460;2023-11-21T14:12:51;13.67;;;9.47;;
6860;SDS011;3469;47.060;15.460;2023-11-21T14:15:23;12.50;;;9.20;;
6860;SDS011;3469;47.060;15.460;2023-11-21T14:17:54;10.20;;;8.33;;
6860;SDS011;3469;47.060;15.460;2023-11-21T14:20:24;10.00;;;8.30;;
6860;SDS011;3469;47.060;15.460;2023-11-21T14:22:56;9.57;;;7.53;;
6860;SDS011;3469;47.060;15.460;2023-11-21T14:25:27;10.93;;;7.70;;
6860;SDS011;3469;47.060;15.460;2023-11-21T14:28:01;9.27;;;8.30;;
6860;SDS011;3469;47.060;15.460;2023-11-21T14:30:33;10.77;;;6.77;;
6860;SDS011;3469;47.060;15.460;2023-11-21T14:33:03;10.17;;;7.30;;
6860;SDS011;3469;47.060;15.460;2023-11-21T14:35:35;12.20;;;8.77;;
6860;SDS011;3469;47.060;15.460;2023-11-21T14:38:05;11.07;;;8.77;;
6860;SDS011;3469;47.060;15.460;2023-11-21T14:40:37;10.00;;;8.20;;
6860;SDS011;3469;47.060;15.460;2023-11-21T14:43:10;17.60;;;9.23;;
6860;SDS011;3469;47.060;15.460;2023-11-21T14:45:41;11.03;;;8.40;;
6860;SDS011;3469;47.060;15.460;2023-11-21T14:48:11;15.00;;;10.70;;
6860;SDS011;3469;47.060;15.460;2023-11-21T14:50:56;21.57;;;15.87;;
6860;SDS011;3469;47.060;15.460;2023-11-21T14:53:38;14.13;;;11.23;;
6860;SDS011;3469;47.060;15.460;2023-11-21T14:56:20;16.80;;;11.73;;
6860;SDS011;3469;47.060;15.460;2023-11-21T14:58:56;17.50;;;11.53;;
6860;SDS011;3469;47.060;15.460;2023-11-21T15:01:31;19.60;;;12.33;;
6860;SDS011;3469;47.060;15.460;2023-11-21T15:04:11;14.80;;;12.80;;
6860;SDS011;3469;47.060;15.460;2023-11-21T15:06:56;18.73;;;13.40;;
6860;SDS011;3469;47.060;15.460;2023-11-21T15:09:25;16.20;;;12.70;;
6860;SDS011;3469;47.060;15.460;2023-11-21T15:12:08;20.00;;;13.27;;
6860;SDS011;3469;47.060;15.460;2023-11-21T15:14:47;18.97;;;12.57;;
6860;SDS011;3469;47.060;15.460;2023-11-21T15:17:19;20.20;;;12.43;;
6860;SDS011;3469;47.060;15.460;2023-11-21T15:19:54;17.97;;;12.17;;
6860;SDS011;3469;47.060;15.460;2023-11-21T15:22:25;19.57;;;14.83;;
6860;SDS011;3469;47.060;15.460;2023-11-21T15:24:55;21.20;;;15.47;;
6860;SDS011;3469;47.060;15.460;2023-11-21T15:27:28;16.70;;;13.37;;
6860;SDS011;3469;47.060;15.460;2023-11-21T15:30:01;17.93;;;13.33;;
6860;SDS011;3469;47.060;15.460;2023-11-21T15:32:31;16.40;;;13.20;;
6860;SDS011;3469;47.060;15.460;2023-11-21T15:35:02;17.57;;;13.93;;
6860;SDS011;3469;47.060;15.460;2023-11-21T15:37:33;21.60;;;13.07;;
6860;SDS011;3469;47.060;15.460;2023-11-21T15:40:04;18.03;;;12.60;;
6860;SDS011;3469;47.060;15.460;2023-11-21T15:42:36;14.50;;;12.27;;
6860;SDS011;3469;47.060;15.460;2023-11-21T15:45:10;18.00;;;13.17;;
6860;SDS011;3469;47.060;15.460;2023-11-21T15:47:40;19.03;;;12.40;;